sensor_id;sensor_type;location;lat;lon;timestamp;P1;durP1;ratioP1;P2;durP2;ratioP2
38455;SDS011;24237;50.106;20.014;2023-10-31T00:00:38;23.73;;;4.70;;
38455;SDS011;24237;50.106;20.014;2023-10-31T00:03:04;12.15;;;4.07;;
38455;SDS011;24237;50.106;20.014;2023-10-31T00:05:29;8.35;;;3.63;;
38455;SDS011;24237;50.106;20.014;2023-10-31T00:07:55;9.63;;;3.90;;
38455;SDS011;24237;50.106;20.014;2023-10-31T00:10:20;9.38;;;4.07;;
38455;SDS011;24237;50.106;20.014;2023-10-31T00:12:46;7.88;;;3.60;;
38455;SDS011;24237;50.106;20.014;2023-10-31T00:15:12;11.75;;;4.50;;
38455;SDS011;24237;50.106;20.014;2023-10-31T00:17:38;8.32;;;3.83;;
38455;SDS011;24237;50.106;20.014;2023-10-31T00:20:03;11.05;;;3.90;;
38455;SDS011;24237;50.106;20.014;2023-10-31T00:22:30;8.55;;;3.72;;
38455;SDS011;24237;50.106;20.014;2023-10-31T00:24:55;10.65;;;5.28;;
38455;SDS011;24237;50.106;20.014;2023-10-31T00:27:21;8.73;;;3.75;;
38455;SDS011;24237;50.106;20.014;2023-10-31T00:29:47;9.98;;;3.90;;
38455;SDS011;24237;50.106;20.014;2023-10-31T00:32:12;7.63;;;3.63;;
38455;SDS011;24237;50.106;20.014;2023-10-31T00:34:38;6.13;;;3.33;;
38455;SDS011;24237;50.106;20.014;2023-10-31T00:37:03;9.05;;;3.85;;
38455;SDS011;24237;50.106;20.014;2023-10-31T00:39:29;9.30;;;4.15;;
38455;SDS011;24237;50.106;20.014;2023-10-31T00:41:55;7.10;;;3.70;;
38455;SDS011;24237;50.106;20.014;2023-10-31T00:44:20;9.75;;;3.08;;
38455;SDS011;24237;50.106;20.014;2023-10-31T00:46:46;11.43;;;4.00;;
38455;SDS011;24237;50.106;20.014;2023-10-31T00:49:12;12.35;;;3.65;;
38455;SDS011;24237;50.106;20.014;2023-10-31T00:51:37;11.00;;;3.78;;
38455;SDS011;24237;50.106;20.014;2023-10-31T00:54:03;12.05;;;5.05;;
38455;SDS011;24237;50.106;20.014;2023-10-31T00:56:29;8.07;;;3.58;;
38455;SDS011;24237;50.106;20.014;2023-10-31T00:59:11;11.55;;;3.58;;
38455;SDS011;24237;50.106;20.014;2023-10-31T01:01:37;18.85;;;4.10;;
38455;SDS011;24237;50.106;20.014;2023-10-31T01:04:02;22.83;;;4.85;;
38455;SDS011;24237;50.106;20.014;2023-10-31T01:06:28;11.57;;;4.57;;
38455;SDS011;24237;50.106;20.014;2023-10-31T01:08:54;12.93;;;4.18;;
38455;SDS011;24237;50.106;20.014;2023-10-31T01:11:19;11.90;;;3.80;;
38455;SDS011;24237;50.106;20.014;2023-10-31T01:13:45;8.95;;;3.53;;
38455;SDS011;24237;50.106;20.014;2023-10-31T01:16:10;20.17;;;4.03;;
38455;SDS011;24237;50.106;20.014;2023-10-31T01:18:36;17.05;;;5.10;;
38455;SDS011;24237;50.106;20.014;2023-10-31T01:21:02;14.00;;;4.70;;
38455;SDS011;24237;50.106;20.014;2023-10-31T01:23:28;13.13;;;4.55;;
38455;SDS011;24237;50.106;20.014;2023-10-31T01:25:53;13.20;;;4.47;;
38455;SDS011;24237;50.106;20.014;2023-10-31T01:28:19;9.98;;;4.30;;
38455;SDS011;24237;50.106;20.014;2023-10-31T01:30:44;12.73;;;4.95;;
38455;SDS011;24237;50.106;20.014;2023-10-31T01:33:10;10.25;;;4.30;;
38455;SDS011;24237;50.106;20.014;2023-10-31T01:35:35;12.38;;;4.88;;
38455;SDS011;24237;50.106;20.014;2023-10-31T01:38:01;10.82;;;4.93;;
38455;SDS011;24237;50.106;20.014;2023-10-31T01:40:26;9.55;;;4.20;;
38455;SDS011;24237;50.106;20.014;2023-10-31T01:42:52;9.65;;;4.60;;
38455;SDS011;24237;50.106;20.014;2023-10-31T01:45:17;10.52;;;4.00;;
38455;SDS011;24237;50.106;20.014;2023-10-31T01:47:43;8.75;;;3.75;;
38455;SDS011;24237;50.106;20.014;2023-10-31T01:50:13;17.23;;;3.85;;
38455;SDS011;24237;50.106;20.014;2023-10-31T01:52:38;6.43;;;2.60;;
38455;SDS011;24237;50.106;20.014;2023-10-31T01:55:04;7.45;;;2.63;;
38455;SDS011;24237;50.106;20.014;2023-10-31T01:57:30;9.23;;;2.92;;
38455;SDS011;24237;50.106;20.014;2023-10-31T01:59:56;10.55;;;2.92;;
38455;SDS011;24237;50.106;20.014;2023-10-31T02:02:22;7.05;;;2.78;;
38455;SDS011;24237;50.106;20.014;2023-10-31T02:04:49;8.63;;;3.03;;
38455;SDS011;24237;50.106;20.014;2023-10-31T02:07:16;12.05;;;4.22;;
38455;SDS011;24237;50.106;20.014;2023-10-31T02:09:41;7.13;;;3.55;;
38455;SDS011;24237;50.106;20.014;2023-10-31T02:12:07;10.82;;;3.90;;
38455;SDS011;24237;50.106;20.014;2023-10-31T02:14:32;13.98;;;4.13;;
38455;SDS011;24237;50.106;20.014;2023-10-31T02:16:58;10.35;;;3.78;;
38455;SDS011;24237;50.106;20.014;2023-10-31T02:19:23;6.25;;;3.30;;
38455;SDS011;24237;50.106;20.014;2023-10-31T02:21:49;9.43;;;3.30;;
38455;SDS011;24237;50.106;20.014;2023-10-31T02:24:15;13.43;;;3.85;;
38455;SDS011;24237;50.106;20.014;2023-10-31T02:26:40;12.70;;;4.75;;
38455;SDS011;24237;50.106;20.014;2023-10-31T02:29:06;13.68;;;4.55;;
38455;SDS011;24237;50.106;20.014;2023-10-31T02:31:32;11.88;;;4.38;;
38455;SDS011;24237;50.106;20.014;2023-10-31T02:33:57;14.90;;;6.60;;
38455;SDS011;24237;50.106;20.014;2023-10-31T02:36:23;19.45;;;7.68;;
38455;SDS011;24237;50.106;20.014;2023-10-31T02:38:49;20.55;;;7.80;;
38455;SDS011;24237;50.106;20.014;2023-10-31T02:41:14;21.50;;;8.00;;
38455;SDS011;24237;50.106;20.014;2023-10-31T02:43:41;24.60;;;7.72;;
38455;SDS011;24237;50.106;20.014;2023-10-31T02:46:06;19.55;;;7.28;;
38455;SDS011;24237;50.106;20.014;2023-10-31T02:48:32;20.13;;;6.97;;
38455;SDS011;24237;50.106;20.014;2023-10-31T02:51:06;23.63;;;6.85;;
38455;SDS011;24237;50.106;20.014;2023-10-31T02:53:35;16.02;;;5.55;;
38455;SDS011;24237;50.106;20.014;2023-10-31T02:56:01;12.68;;;5.03;;
38455;SDS011;24237;50.106;20.014;2023-10-31T02:58:27;15.02;;;5.43;;
38455;SDS011;24237;50.106;20.014;2023-10-31T03:00:53;14.38;;;5.53;;
38455;SDS011;24237;50.106;20.014;2023-10-31T03:03:18;18.60;;;4.43;;
38455;SDS011;24237;50.106;20.014;2023-10-31T03:05:44;18.45;;;4.05;;
38455;SDS011;24237;50.106;20.014;2023-10-31T03:08:10;13.73;;;3.67;;
38455;SDS011;24237;50.106;20.014;2023-10-31T03:10:37;13.45;;;4.28;;
38455;SDS011;24237;50.106;20.014;2023-10-31T03:13:03;10.50;;;4.40;;
38455;SDS011;24237;50.106;20.014;2023-10-31T03:15:29;9.70;;;4.63;;
38455;SDS011;24237;50.106;20.014;2023-10-31T03:17:54;11.98;;;3.97;;
38455;SDS011;24237;50.106;20.014;2023-10-31T03:20:20;9.98;;;3.72;;
38455;SDS011;24237;50.106;20.014;2023-10-31T03:22:45;14.60;;;3.78;;
38455;SDS011;24237;50.106;20.014;2023-10-31T03:25:11;11.38;;;4.53;;
38455;SDS011;24237;50.106;20.014;2023-10-31T03:27:36;12.68;;;4.68;;
38455;SDS011;24237;50.106;20.014;2023-10-31T03:30:02;26.63;;;8.88;;
38455;SDS011;24237;50.106;20.014;2023-10-31T03:32:28;19.48;;;8.98;;
38455;SDS011;24237;50.106;20.014;2023-10-31T03:34:54;21.65;;;7.32;;
38455;SDS011;24237;50.106;20.014;2023-10-31T03:37:19;16.27;;;6.50;;
38455;SDS011;24237;50.106;20.014;2023-10-31T03:39:45;18.55;;;6.38;;
38455;SDS011;24237;50.106;20.014;2023-10-31T03:42:11;23.05;;;6.93;;
38455;SDS011;24237;50.106;20.014;2023-10-31T03:44:36;15.55;;;6.45;;
38455;SDS011;24237;50.106;20.014;2023-10-31T03:47:02;24.23;;;8.43;;
38455;SDS011;24237;50.106;20.014;2023-10-31T03:49:27;21.73;;;8.60;;
38455;SDS011;24237;50.106;20.014;2023-10-31T03:51:53;25.65;;;7.18;;
38455;SDS011;24237;50.106;20.014;2023-10-31T03:54:19;20.52;;;6.28;;
38455;SDS011;24237;50.106;20.014;2023-10-31T03:56:44;26.92;;;6.53;;
38455;SDS011;24237;50.106;20.014;2023-10-31T03:59:10;16.02;;;5.32;;
38455;SDS011;24237;50.106;20.014;2023-10-31T04:01:35;24.63;;;6.55;;
38455;SDS011;24237;50.106;20.014;2023-10-31T04:04:01;24.42;;;6.40;;
38455;SDS011;24237;50.106;20.014;2023-10-31T04:06:27;19.90;;;6.05;;
38455;SDS011;24237;50.106;20.014;2023-10-31T04:08:53;19.58;;;9.25;;
38455;SDS011;24237;50.106;20.014;2023-10-31T04:11:18;28.08;;;13.18;;
38455;SDS011;24237;50.106;20.014;2023-10-31T04:13:44;33.60;;;11.70;;
38455;SDS011;24237;50.106;20.014;2023-10-31T04:16:09;19.70;;;8.27;;
38455;SDS011;24237;50.106;20.014;2023-10-31T04:18:35;21.50;;;8.13;;
38455;SDS011;24237;50.106;20.014;2023-10-31T04:21:01;26.45;;;8.57;;
38455;SDS011;24237;50.106;20.014;2023-10-31T04:23:27;24.13;;;8.98;;
38455;SDS011;24237;50.106;20.014;2023-10-31T04:25:52;24.50;;;9.13;;
38455;SDS011;24237;50.106;20.014;2023-10-31T04:28:18;32.47;;;10.32;;
38455;SDS011;24237;50.106;20.014;2023-10-31T04:30:44;34.28;;;10.68;;
38455;SDS011;24237;50.106;20.014;2023-10-31T04:33:09;26.92;;;10.82;;
38455;SDS011;24237;50.106;20.014;2023-10-31T04:35:35;26.65;;;8.73;;
38455;SDS011;24237;50.106;20.014;2023-10-31T04:38:01;29.10;;;6.70;;
38455;SDS011;24237;50.106;20.014;2023-10-31T04:40:26;18.52;;;5.65;;
38455;SDS011;24237;50.106;20.014;2023-10-31T04:42:52;27.50;;;7.78;;
38455;SDS011;24237;50.106;20.014;2023-10-31T04:45:17;16.63;;;6.38;;
38455;SDS011;24237;50.106;20.014;2023-10-31T04:47:43;17.50;;;6.57;;
38455;SDS011;24237;50.106;20.014;2023-10-31T04:50:09;17.80;;;7.28;;
38455;SDS011;24237;50.106;20.014;2023-10-31T04:52:34;18.60;;;6.38;;
38455;SDS011;24237;50.106;20.014;2023-10-31T04:55:00;17.55;;;7.20;;
38455;SDS011;24237;50.106;20.014;2023-10-31T04:57:26;28.25;;;7.25;;
38455;SDS011;24237;50.106;20.014;2023-10-31T04:59:51;23.48;;;5.90;;
38455;SDS011;24237;50.106;20.014;2023-10-31T05:02:20;21.80;;;7.20;;
38455;SDS011;24237;50.106;20.014;2023-10-31T05:04:46;22.73;;;5.40;;
38455;SDS011;24237;50.106;20.014;2023-10-31T05:07:15;17.52;;;4.93;;
38455;SDS011;24237;50.106;20.014;2023-10-31T05:09:41;18.90;;;5.60;;
38455;SDS011;24237;50.106;20.014;2023-10-31T05:12:07;12.57;;;5.30;;
38455;SDS011;24237;50.106;20.014;2023-10-31T05:14:32;14.93;;;4.40;;
38455;SDS011;24237;50.106;20.014;2023-10-31T05:16:58;14.80;;;3.83;;
38455;SDS011;24237;50.106;20.014;2023-10-31T05:19:23;13.05;;;3.25;;
38455;SDS011;24237;50.106;20.014;2023-10-31T05:21:49;10.05;;;3.15;;
38455;SDS011;24237;50.106;20.014;2023-10-31T05:24:15;6.93;;;2.55;;
38455;SDS011;24237;50.106;20.014;2023-10-31T05:26:40;10.38;;;2.53;;
38455;SDS011;24237;50.106;20.014;2023-10-31T05:29:08;6.05;;;1.92;;
38455;SDS011;24237;50.106;20.014;2023-10-31T05:31:33;8.25;;;2.45;;
38455;SDS011;24237;50.106;20.014;2023-10-31T05:34:00;7.32;;;2.13;;
38455;SDS011;24237;50.106;20.014;2023-10-31T05:36:25;12.18;;;2.13;;
38455;SDS011;24237;50.106;20.014;2023-10-31T05:38:52;8.65;;;2.45;;
38455;SDS011;24237;50.106;20.014;2023-10-31T05:41:18;8.43;;;1.85;;
38455;SDS011;24237;50.106;20.014;2023-10-31T05:43:44;6.95;;;1.80;;
38455;SDS011;24237;50.106;20.014;2023-10-31T05:46:09;6.57;;;1.52;;
38455;SDS011;24237;50.106;20.014;2023-10-31T05:48:38;11.35;;;2.63;;
38455;SDS011;24237;50.106;20.014;2023-10-31T05:51:05;8.20;;;2.55;;
38455;SDS011;24237;50.106;20.014;2023-10-31T05:53:39;8.82;;;2.20;;
38455;SDS011;24237;50.106;20.014;2023-10-31T05:56:06;14.85;;;2.70;;
38455;SDS011;24237;50.106;20.014;2023-10-31T05:58:32;7.20;;;2.00;;
38455;SDS011;24237;50.106;20.014;2023-10-31T06:00:58;9.43;;;2.03;;
38455;SDS011;24237;50.106;20.014;2023-10-31T06:03:24;9.10;;;2.15;;
38455;SDS011;24237;50.106;20.014;2023-10-31T06:05:49;11.48;;;1.92;;
38455;SDS011;24237;50.106;20.014;2023-10-31T06:08:15;9.55;;;2.15;;
38455;SDS011;24237;50.106;20.014;2023-10-31T06:10:40;13.00;;;1.90;;
38455;SDS011;24237;50.106;20.014;2023-10-31T06:13:06;11.43;;;2.30;;
38455;SDS011;24237;50.106;20.014;2023-10-31T06:15:32;6.32;;;2.17;;
38455;SDS011;24237;50.106;20.014;2023-10-31T06:17:57;9.20;;;2.00;;
38455;SDS011;24237;50.106;20.014;2023-10-31T06:20:23;12.38;;;2.10;;
38455;SDS011;24237;50.106;20.014;2023-10-31T06:22:48;9.20;;;2.50;;
38455;SDS011;24237;50.106;20.014;2023-10-31T06:25:14;8.50;;;1.92;;
38455;SDS011;24237;50.106;20.014;2023-10-31T06:27:40;23.55;;;2.67;;
38455;SDS011;24237;50.106;20.014;2023-10-31T06:30:05;20.27;;;2.33;;
38455;SDS011;24237;50.106;20.014;2023-10-31T06:32:31;10.93;;;1.77;;
38455;SDS011;24237;50.106;20.014;2023-10-31T06:34:57;15.15;;;2.72;;
38455;SDS011;24237;50.106;20.014;2023-10-31T06:37:22;9.27;;;1.92;;
38455;SDS011;24237;50.106;20.014;2023-10-31T06:39:48;14.80;;;2.53;;
38455;SDS011;24237;50.106;20.014;2023-10-31T06:42:13;9.25;;;1.80;;
38455;SDS011;24237;50.106;20.014;2023-10-31T06:44:39;5.63;;;1.75;;
38455;SDS011;24237;50.106;20.014;2023-10-31T06:47:05;4.28;;;1.50;;
38455;SDS011;24237;50.106;20.014;2023-10-31T06:49:30;14.38;;;2.00;;
38455;SDS011;24237;50.106;20.014;2023-10-31T06:51:56;5.57;;;1.98;;
38455;SDS011;24237;50.106;20.014;2023-10-31T06:54:21;11.00;;;3.05;;
38455;SDS011;24237;50.106;20.014;2023-10-31T06:56:47;6.88;;;1.40;;
38455;SDS011;24237;50.106;20.014;2023-10-31T06:59:12;4.75;;;1.42;;
38455;SDS011;24237;50.106;20.014;2023-10-31T07:01:38;7.00;;;2.00;;
38455;SDS011;24237;50.106;20.014;2023-10-31T07:04:03;8.43;;;1.73;;
38455;SDS011;24237;50.106;20.014;2023-10-31T07:06:29;9.90;;;1.60;;
38455;SDS011;24237;50.106;20.014;2023-10-31T07:08:55;5.15;;;1.70;;
38455;SDS011;24237;50.106;20.014;2023-10-31T07:11:22;5.93;;;1.90;;
38455;SDS011;24237;50.106;20.014;2023-10-31T07:13:48;4.45;;;1.48;;
38455;SDS011;24237;50.106;20.014;2023-10-31T07:16:13;6.32;;;1.83;;
38455;SDS011;24237;50.106;20.014;2023-10-31T07:18:39;26.10;;;2.85;;
38455;SDS011;24237;50.106;20.014;2023-10-31T07:21:04;16.25;;;2.13;;
38455;SDS011;24237;50.106;20.014;2023-10-31T07:23:30;10.57;;;1.83;;
38455;SDS011;24237;50.106;20.014;2023-10-31T07:25:56;7.28;;;1.50;;
38455;SDS011;24237;50.106;20.014;2023-10-31T07:28:21;6.90;;;1.60;;
38455;SDS011;24237;50.106;20.014;2023-10-31T07:30:47;7.07;;;1.73;;
38455;SDS011;24237;50.106;20.014;2023-10-31T07:33:13;4.35;;;1.23;;
38455;SDS011;24237;50.106;20.014;2023-10-31T07:35:38;7.78;;;1.70;;
38455;SDS011;24237;50.106;20.014;2023-10-31T07:38:04;6.32;;;1.80;;
38455;SDS011;24237;50.106;20.014;2023-10-31T07:40:29;3.33;;;1.50;;
38455;SDS011;24237;50.106;20.014;2023-10-31T07:42:55;4.47;;;1.58;;
38455;SDS011;24237;50.106;20.014;2023-10-31T07:45:20;8.38;;;1.85;;
38455;SDS011;24237;50.106;20.014;2023-10-31T07:47:46;10.25;;;2.13;;
38455;SDS011;24237;50.106;20.014;2023-10-31T07:50:11;7.07;;;1.80;;
38455;SDS011;24237;50.106;20.014;2023-10-31T07:52:38;6.68;;;1.80;;
38455;SDS011;24237;50.106;20.014;2023-10-31T07:55:03;9.90;;;1.58;;
38455;SDS011;24237;50.106;20.014;2023-10-31T07:57:29;3.22;;;1.50;;
38455;SDS011;24237;50.106;20.014;2023-10-31T07:59:55;6.20;;;2.13;;
38455;SDS011;24237;50.106;20.014;2023-10-31T08:02:20;12.88;;;2.00;;
38455;SDS011;24237;50.106;20.014;2023-10-31T08:04:46;5.78;;;1.85;;
38455;SDS011;24237;50.106;20.014;2023-10-31T08:07:12;7.07;;;1.92;;
38455;SDS011;24237;50.106;20.014;2023-10-31T08:09:37;8.25;;;1.90;;
38455;SDS011;24237;50.106;20.014;2023-10-31T08:12:03;10.52;;;2.67;;
38455;SDS011;24237;50.106;20.014;2023-10-31T08:14:28;5.43;;;2.03;;
38455;SDS011;24237;50.106;20.014;2023-10-31T08:16:54;3.38;;;1.30;;
38455;SDS011;24237;50.106;20.014;2023-10-31T08:19:19;8.07;;;1.80;;
38455;SDS011;24237;50.106;20.014;2023-10-31T08:21:45;6.13;;;2.28;;
38455;SDS011;24237;50.106;20.014;2023-10-31T08:24:11;4.43;;;2.13;;
38455;SDS011;24237;50.106;20.014;2023-10-31T08:29:03;7.70;;;2.67;;
38455;SDS011;24237;50.106;20.014;2023-10-31T08:31:29;11.25;;;2.20;;
38455;SDS011;24237;50.106;20.014;2023-10-31T08:33:55;4.60;;;2.03;;
38455;SDS011;24237;50.106;20.014;2023-10-31T08:36:20;10.20;;;1.88;;
38455;SDS011;24237;50.106;20.014;2023-10-31T08:38:46;10.43;;;2.30;;
38455;SDS011;24237;50.106;20.014;2023-10-31T08:41:12;10.57;;;2.20;;
38455;SDS011;24237;50.106;20.014;2023-10-31T08:43:43;6.95;;;1.67;;
38455;SDS011;24237;50.106;20.014;2023-10-31T08:46:09;5.80;;;2.10;;
38455;SDS011;24237;50.106;20.014;2023-10-31T08:48:34;5.63;;;2.00;;
38455;SDS011;24237;50.106;20.014;2023-10-31T08:51:00;7.00;;;1.88;;
38455;SDS011;24237;50.106;20.014;2023-10-31T08:53:25;6.03;;;1.80;;
38455;SDS011;24237;50.106;20.014;2023-10-31T08:55:52;11.13;;;1.77;;
38455;SDS011;24237;50.106;20.014;2023-10-31T08:58:17;9.93;;;2.20;;
38455;SDS011;24237;50.106;20.014;2023-10-31T09:00:43;13.07;;;2.33;;
38455;SDS011;24237;50.106;20.014;2023-10-31T09:03:09;7.38;;;2.20;;
38455;SDS011;24237;50.106;20.014;2023-10-31T09:05:34;7.47;;;1.83;;
38455;SDS011;24237;50.106;20.014;2023-10-31T09:08:00;9.95;;;2.20;;
38455;SDS011;24237;50.106;20.014;2023-10-31T09:10:25;7.55;;;2.20;;
38455;SDS011;24237;50.106;20.014;2023-10-31T09:12:51;7.68;;;1.90;;
38455;SDS011;24237;50.106;20.014;2023-10-31T09:15:17;11.55;;;1.88;;
38455;SDS011;24237;50.106;20.014;2023-10-31T09:17:43;6.15;;;2.00;;
38455;SDS011;24237;50.106;20.014;2023-10-31T09:20:09;7.65;;;2.40;;
38455;SDS011;24237;50.106;20.014;2023-10-31T09:22:36;13.90;;;2.10;;
38455;SDS011;24237;50.106;20.014;2023-10-31T09:25:02;10.63;;;2.05;;
38455;SDS011;24237;50.106;20.014;2023-10-31T09:27:28;8.48;;;2.08;;
38455;SDS011;24237;50.106;20.014;2023-10-31T09:29:53;9.35;;;2.25;;
38455;SDS011;24237;50.106;20.014;2023-10-31T09:32:19;4.10;;;1.80;;
38455;SDS011;24237;50.106;20.014;2023-10-31T09:34:44;12.35;;;2.05;;
38455;SDS011;24237;50.106;20.014;2023-10-31T09:37:10;6.78;;;2.30;;
38455;SDS011;24237;50.106;20.014;2023-10-31T09:39:36;7.47;;;2.05;;
38455;SDS011;24237;50.106;20.014;2023-10-31T09:42:01;9.45;;;2.03;;
38455;SDS011;24237;50.106;20.014;2023-10-31T09:44:27;5.07;;;2.42;;
38455;SDS011;24237;50.106;20.014;2023-10-31T09:46:53;6.60;;;2.17;;
38455;SDS011;24237;50.106;20.014;2023-10-31T09:49:18;8.52;;;2.58;;
38455;SDS011;24237;50.106;20.014;2023-10-31T09:51:44;8.65;;;3.00;;
38455;SDS011;24237;50.106;20.014;2023-10-31T09:54:12;6.15;;;2.13;;
38455;SDS011;24237;50.106;20.014;2023-10-31T09:56:40;7.60;;;2.15;;
38455;SDS011;24237;50.106;20.014;2023-10-31T09:59:06;8.02;;;2.08;;
38455;SDS011;24237;50.106;20.014;2023-10-31T10:01:33;6.40;;;2.42;;
38455;SDS011;24237;50.106;20.014;2023-10-31T10:03:58;12.15;;;2.72;;
38455;SDS011;24237;50.106;20.014;2023-10-31T10:06:24;7.38;;;2.40;;
38455;SDS011;24237;50.106;20.014;2023-10-31T10:08:50;6.88;;;3.15;;
38455;SDS011;24237;50.106;20.014;2023-10-31T10:11:16;12.75;;;2.70;;
38455;SDS011;24237;50.106;20.014;2023-10-31T10:13:41;5.15;;;2.28;;
38455;SDS011;24237;50.106;20.014;2023-10-31T10:16:07;9.90;;;3.15;;
38455;SDS011;24237;50.106;20.014;2023-10-31T10:18:34;8.45;;;2.85;;
38455;SDS011;24237;50.106;20.014;2023-10-31T10:21:04;8.65;;;2.65;;
38455;SDS011;24237;50.106;20.014;2023-10-31T10:23:31;8.48;;;3.22;;
38455;SDS011;24237;50.106;20.014;2023-10-31T10:25:58;15.07;;;4.27;;
38455;SDS011;24237;50.106;20.014;2023-10-31T10:28:25;6.43;;;2.28;;
38455;SDS011;24237;50.106;20.014;2023-10-31T10:30:52;15.25;;;3.55;;
38455;SDS011;24237;50.106;20.014;2023-10-31T10:33:18;5.20;;;2.38;;
38455;SDS011;24237;50.106;20.014;2023-10-31T10:35:45;7.57;;;2.50;;
38455;SDS011;24237;50.106;20.014;2023-10-31T10:38:15;12.93;;;2.42;;
38455;SDS011;24237;50.106;20.014;2023-10-31T10:40:45;7.50;;;3.45;;
38455;SDS011;24237;50.106;20.014;2023-10-31T10:43:13;12.95;;;2.72;;
38455;SDS011;24237;50.106;20.014;2023-10-31T10:45:55;10.85;;;3.40;;
38455;SDS011;24237;50.106;20.014;2023-10-31T10:48:23;8.68;;;2.65;;
38455;SDS011;24237;50.106;20.014;2023-10-31T10:51:07;6.47;;;2.40;;
38455;SDS011;24237;50.106;20.014;2023-10-31T10:54:09;5.78;;;2.38;;
38455;SDS011;24237;50.106;20.014;2023-10-31T10:56:50;6.65;;;2.60;;
38455;SDS011;24237;50.106;20.014;2023-10-31T10:59:25;7.63;;;2.60;;
38455;SDS011;24237;50.106;20.014;2023-10-31T11:01:58;7.13;;;3.38;;
38455;SDS011;24237;50.106;20.014;2023-10-31T11:04:26;8.38;;;2.65;;
38455;SDS011;24237;50.106;20.014;2023-10-31T11:06:52;8.55;;;3.65;;
38455;SDS011;24237;50.106;20.014;2023-10-31T11:09:18;6.53;;;2.20;;
38455;SDS011;24237;50.106;20.014;2023-10-31T11:11:45;5.53;;;2.13;;
38455;SDS011;24237;50.106;20.014;2023-10-31T11:14:14;8.20;;;2.25;;
38455;SDS011;24237;50.106;20.014;2023-10-31T11:16:43;6.13;;;2.20;;
38455;SDS011;24237;50.106;20.014;2023-10-31T11:19:12;7.30;;;1.80;;
38455;SDS011;24237;50.106;20.014;2023-10-31T11:21:52;6.28;;;1.98;;
38455;SDS011;24237;50.106;20.014;2023-10-31T11:24:34;4.18;;;1.92;;
38455;SDS011;24237;50.106;20.014;2023-10-31T11:27:03;7.15;;;2.00;;
38455;SDS011;24237;50.106;20.014;2023-10-31T11:29:30;5.80;;;1.90;;
38455;SDS011;24237;50.106;20.014;2023-10-31T11:31:57;4.77;;;1.90;;
38455;SDS011;24237;50.106;20.014;2023-10-31T11:34:23;5.47;;;1.65;;
38455;SDS011;24237;50.106;20.014;2023-10-31T11:36:51;9.38;;;2.05;;
38455;SDS011;24237;50.106;20.014;2023-10-31T11:39:18;4.82;;;2.15;;
38455;SDS011;24237;50.106;20.014;2023-10-31T11:41:49;7.40;;;2.10;;
38455;SDS011;24237;50.106;20.014;2023-10-31T11:44:16;3.70;;;2.20;;
38455;SDS011;24237;50.106;20.014;2023-10-31T11:46:42;3.88;;;1.92;;
38455;SDS011;24237;50.106;20.014;2023-10-31T11:49:08;7.43;;;2.05;;
38455;SDS011;24237;50.106;20.014;2023-10-31T11:51:33;10.15;;;2.25;;
38455;SDS011;24237;50.106;20.014;2023-10-31T11:54:01;4.25;;;2.15;;
38455;SDS011;24237;50.106;20.014;2023-10-31T11:56:27;3.67;;;1.35;;
38455;SDS011;24237;50.106;20.014;2023-10-31T11:58:59;8.75;;;1.98;;
38455;SDS011;24237;50.106;20.014;2023-10-31T12:01:27;5.15;;;1.60;;
38455;SDS011;24237;50.106;20.014;2023-10-31T12:03:52;3.28;;;1.75;;
38455;SDS011;24237;50.106;20.014;2023-10-31T12:06:18;7.88;;;2.67;;
38455;SDS011;24237;50.106;20.014;2023-10-31T12:08:45;4.35;;;1.98;;
38455;SDS011;24237;50.106;20.014;2023-10-31T12:11:16;6.03;;;2.22;;
38455;SDS011;24237;50.106;20.014;2023-10-31T12:16:27;4.63;;;1.50;;
38455;SDS011;24237;50.106;20.014;2023-10-31T12:18:57;10.45;;;2.50;;
38455;SDS011;24237;50.106;20.014;2023-10-31T12:21:43;4.60;;;1.80;;
38455;SDS011;24237;50.106;20.014;2023-10-31T12:24:13;3.30;;;1.80;;
38455;SDS011;24237;50.106;20.014;2023-10-31T12:26:40;8.65;;;2.28;;
38455;SDS011;24237;50.106;20.014;2023-10-31T12:29:09;3.95;;;1.63;;
38455;SDS011;24237;50.106;20.014;2023-10-31T12:31:46;6.55;;;1.73;;
38455;SDS011;24237;50.106;20.014;2023-10-31T12:34:17;5.60;;;1.83;;
38455;SDS011;24237;50.106;20.014;2023-10-31T12:36:44;5.22;;;2.00;;
38455;SDS011;24237;50.106;20.014;2023-10-31T12:39:11;13.80;;;2.50;;
38455;SDS011;24237;50.106;20.014;2023-10-31T12:41:38;4.93;;;2.00;;
38455;SDS011;24237;50.106;20.014;2023-10-31T12:46:31;4.82;;;1.98;;
38455;SDS011;24237;50.106;20.014;2023-10-31T12:48:58;3.85;;;1.80;;
38455;SDS011;24237;50.106;20.014;2023-10-31T12:51:24;5.70;;;1.90;;
38455;SDS011;24237;50.106;20.014;2023-10-31T12:53:52;4.57;;;2.17;;
38455;SDS011;24237;50.106;20.014;2023-10-31T12:56:34;5.13;;;2.05;;
38455;SDS011;24237;50.106;20.014;2023-10-31T12:59:04;5.78;;;2.17;;
38455;SDS011;24237;50.106;20.014;2023-10-31T13:01:35;7.40;;;2.25;;
38455;SDS011;24237;50.106;20.014;2023-10-31T13:04:05;5.93;;;2.05;;
38455;SDS011;24237;50.106;20.014;2023-10-31T13:06:31;7.90;;;3.20;;
38455;SDS011;24237;50.106;20.014;2023-10-31T13:08:57;4.72;;;2.15;;
38455;SDS011;24237;50.106;20.014;2023-10-31T13:11:24;6.72;;;2.05;;
38455;SDS011;24237;50.106;20.014;2023-10-31T13:13:53;4.55;;;1.92;;
38455;SDS011;24237;50.106;20.014;2023-10-31T13:16:19;7.25;;;2.03;;
38455;SDS011;24237;50.106;20.014;2023-10-31T13:18:45;9.10;;;1.77;;
38455;SDS011;24237;50.106;20.014;2023-10-31T13:21:11;5.80;;;1.77;;
38455;SDS011;24237;50.106;20.014;2023-10-31T13:23:39;4.30;;;1.75;;
38455;SDS011;24237;50.106;20.014;2023-10-31T13:26:10;4.88;;;2.60;;
38455;SDS011;24237;50.106;20.014;2023-10-31T13:28:37;7.53;;;2.22;;
38455;SDS011;24237;50.106;20.014;2023-10-31T13:31:04;3.80;;;1.70;;
38455;SDS011;24237;50.106;20.014;2023-10-31T13:33:30;7.60;;;1.95;;
38455;SDS011;24237;50.106;20.014;2023-10-31T13:35:55;3.58;;;1.60;;
38455;SDS011;24237;50.106;20.014;2023-10-31T13:38:21;10.32;;;2.00;;
38455;SDS011;24237;50.106;20.014;2023-10-31T13:40:46;16.42;;;2.45;;
38455;SDS011;24237;50.106;20.014;2023-10-31T13:43:13;7.07;;;2.17;;
38455;SDS011;24237;50.106;20.014;2023-10-31T13:45:38;9.32;;;2.00;;
38455;SDS011;24237;50.106;20.014;2023-10-31T13:48:04;10.43;;;2.28;;
38455;SDS011;24237;50.106;20.014;2023-10-31T13:50:30;6.03;;;2.38;;
38455;SDS011;24237;50.106;20.014;2023-10-31T13:52:55;3.85;;;1.40;;
38455;SDS011;24237;50.106;20.014;2023-10-31T13:55:21;4.63;;;1.67;;
38455;SDS011;24237;50.106;20.014;2023-10-31T13:57:48;11.27;;;1.92;;
38455;SDS011;24237;50.106;20.014;2023-10-31T14:00:14;8.02;;;2.40;;
38455;SDS011;24237;50.106;20.014;2023-10-31T14:02:40;9.90;;;2.22;;
38455;SDS011;24237;50.106;20.014;2023-10-31T14:05:06;16.67;;;2.50;;
38455;SDS011;24237;50.106;20.014;2023-10-31T14:07:32;15.00;;;3.20;;
38455;SDS011;24237;50.106;20.014;2023-10-31T14:09:58;6.25;;;2.50;;
38455;SDS011;24237;50.106;20.014;2023-10-31T14:12:24;6.22;;;2.42;;
38455;SDS011;24237;50.106;20.014;2023-10-31T14:14:49;10.93;;;2.35;;
38455;SDS011;24237;50.106;20.014;2023-10-31T14:17:16;7.90;;;2.67;;
38455;SDS011;24237;50.106;20.014;2023-10-31T14:19:42;8.93;;;2.55;;
38455;SDS011;24237;50.106;20.014;2023-10-31T14:22:08;9.13;;;2.53;;
38455;SDS011;24237;50.106;20.014;2023-10-31T14:24:34;7.93;;;2.78;;
38455;SDS011;24237;50.106;20.014;2023-10-31T14:27:00;10.40;;;2.95;;
38455;SDS011;24237;50.106;20.014;2023-10-31T14:29:26;4.78;;;2.88;;
38455;SDS011;24237;50.106;20.014;2023-10-31T14:31:52;10.57;;;3.17;;